createdAt,value
2022-11-16T00:01:20.732Z,20.60
2022-11-16T00:03:52.277Z,20.60
2022-11-16T00:06:22.624Z,20.60
2022-11-16T00:09:13.843Z,20.60
2022-11-16T00:11:52.674Z,20.60
2022-11-16T00:14:23.329Z,20.60
2022-11-16T00:16:53.777Z,20.60
2022-11-16T00:19:24.249Z,20.70
2022-11-16T00:21:55.770Z,20.60
2022-11-16T00:24:26.196Z,20.60
2022-11-16T00:26:57.410Z,20.60
2022-11-16T00:29:28.174Z,20.60
2022-11-16T00:31:58.371Z,20.60
2022-11-16T00:34:30.211Z,20.60
2022-11-16T00:37:00.452Z,20.60
2022-11-16T00:39:30.785Z,20.60
2022-11-16T00:42:00.762Z,20.60
2022-11-16T00:44:30.919Z,20.60
2022-11-16T00:47:01.629Z,20.70
2022-11-16T00:49:31.907Z,20.60
2022-11-16T00:52:02.053Z,20.60
2022-11-16T00:54:32.736Z,20.60
2022-11-16T00:57:03.271Z,20.60
2022-11-16T00:59:34.512Z,20.70
2022-11-16T01:02:05.258Z,20.60
2022-11-16T01:04:35.820Z,20.70
2022-11-16T01:07:05.984Z,20.70
2022-11-16T01:09:36.025Z,20.70
2022-11-16T01:12:13.624Z,20.70
2022-11-16T01:14:51.169Z,20.70
2022-11-16T01:17:22.192Z,20.70
2022-11-16T01:19:54.076Z,20.70
2022-11-16T01:22:24.351Z,20.70
2022-11-16T01:24:54.561Z,20.80
2022-11-16T01:27:25.195Z,20.70
2022-11-16T01:29:57.148Z,20.80
2022-11-16T01:32:27.380Z,20.80
2022-11-16T01:34:57.773Z,20.80
2022-11-16T01:37:34.366Z,20.80
2022-11-16T01:40:06.806Z,20.80
2022-11-16T01:42:37.325Z,20.80
2022-11-16T01:45:23.460Z,20.90
2022-11-16T01:47:59.274Z,21.00
2022-11-16T01:50:33.964Z,20.90
2022-11-16T01:53:05.680Z,20.90
2022-11-16T01:55:45.334Z,21.00
2022-11-16T01:58:36.609Z,21.00
2022-11-16T02:01:33.131Z,21.00
2022-11-16T02:04:05.342Z,21.00
2022-11-16T02:07:04.756Z,21.00
2022-11-16T02:09:57.140Z,21.00
2022-11-16T02:13:06.010Z,21.10
2022-11-16T02:15:45.794Z,21.10
2022-11-16T02:19:03.517Z,21.10
2022-11-16T02:21:59.081Z,21.10
2022-11-16T02:24:42.670Z,21.00
2022-11-16T02:27:33.053Z,20.20
2022-11-16T02:55:34.166Z,17.50
2022-11-16T02:58:06.107Z,17.70
2022-11-16T03:00:53.645Z,18.00
2022-11-16T03:03:30.655Z,17.90
2022-11-16T03:06:05.124Z,17.50
2022-11-16T03:08:47.914Z,18.00
2022-11-16T03:11:36.651Z,18.60
2022-11-16T03:14:16.697Z,19.00
2022-11-16T03:16:50.355Z,19.40
2022-11-16T03:19:24.258Z,19.60
2022-11-16T03:21:59.455Z,19.70
2022-11-16T03:24:30.601Z,19.90
2022-11-16T03:27:19.401Z,20.00
2022-11-16T03:29:57.835Z,20.10
2022-11-16T03:32:50.740Z,20.20
2022-11-16T03:35:31.597Z,20.20
2022-11-16T03:38:02.270Z,20.30
2022-11-16T03:40:33.809Z,20.40
2022-11-16T03:43:05.797Z,20.40
2022-11-16T03:45:37.287Z,20.50
2022-11-16T03:48:09.284Z,20.50
2022-11-16T03:50:39.811Z,20.50
2022-11-16T03:53:12.411Z,20.50
2022-11-16T03:55:47.006Z,20.60
2022-11-16T03:58:20.845Z,20.60
2022-11-16T04:00:51.102Z,20.60
2022-11-16T04:03:21.727Z,20.60
2022-11-16T04:06:13.463Z,20.70
2022-11-16T04:09:02.967Z,20.70
2022-11-16T04:11:51.352Z,20.80
2022-11-16T04:14:41.074Z,20.80
2022-11-16T04:17:33.827Z,20.80
2022-11-16T04:20:23.175Z,20.80
2022-11-16T04:23:36.223Z,20.80
2022-11-16T04:26:09.646Z,20.80
2022-11-16T04:28:43.992Z,20.80
2022-11-16T04:31:34.801Z,20.90
2022-11-16T04:34:37.526Z,20.90
2022-11-16T04:37:33.586Z,20.90
2022-11-16T04:40:10.841Z,20.90
2022-11-16T04:42:47.212Z,20.90
2022-11-16T04:45:36.757Z,20.90
2022-11-16T04:48:08.502Z,20.90
2022-11-16T04:50:40.906Z,21.00
2022-11-16T04:53:24.696Z,21.00
2022-11-16T04:56:04.873Z,21.00
2022-11-16T04:58:44.632Z,21.00
2022-11-16T05:01:19.543Z,21.00
2022-11-16T05:03:52.630Z,21.00
2022-11-16T05:06:25.644Z,21.00
2022-11-16T05:09:02.558Z,21.00
2022-11-16T05:11:37.295Z,21.00
2022-11-16T05:14:11.608Z,21.00
2022-11-16T05:16:48.740Z,21.00
2022-11-16T05:19:39.569Z,21.00
2022-11-16T05:22:10.565Z,21.00
2022-11-16T05:24:45.267Z,21.10
2022-11-16T05:27:18.599Z,21.10
2022-11-16T05:29:50.972Z,21.10
2022-11-16T05:32:29.912Z,21.10
2022-11-16T05:35:09.898Z,21.10
2022-11-16T05:37:43.327Z,21.10
2022-11-16T05:40:17.873Z,21.10
2022-11-16T05:43:00.939Z,21.10
2022-11-16T05:45:36.964Z,21.10
2022-11-16T05:48:10.663Z,21.10
2022-11-16T05:50:47.851Z,21.10
2022-11-16T05:53:27.817Z,21.10
2022-11-16T05:55:59.560Z,21.10
2022-11-16T05:58:35.397Z,21.10
2022-11-16T06:01:09.496Z,21.10
2022-11-16T06:03:43.198Z,21.10
2022-11-16T06:06:36.010Z,21.20
2022-11-16T06:09:11.588Z,21.20
2022-11-16T06:11:47.700Z,21.20
2022-11-16T06:14:24.875Z,21.20
2022-11-16T06:17:03.146Z,21.20
2022-11-16T06:19:36.716Z,21.20
2022-11-16T06:22:09.019Z,21.20
2022-11-16T06:24:43.129Z,21.20
2022-11-16T06:27:18.747Z,21.30
2022-11-16T06:29:53.644Z,21.30
2022-11-16T06:32:24.541Z,21.20
2022-11-16T06:34:56.802Z,21.30
2022-11-16T06:37:27.950Z,21.30
2022-11-16T06:40:01.355Z,21.30
2022-11-16T06:42:37.082Z,21.30
2022-11-16T06:45:09.611Z,21.30
2022-11-16T06:47:44.882Z,21.30
2022-11-16T06:50:16.720Z,21.30
2022-11-16T06:52:51.777Z,21.30
2022-11-16T06:55:23.339Z,21.30
2022-11-16T06:57:56.341Z,21.30
2022-11-16T07:00:27.693Z,21.30
2022-11-16T07:03:05.950Z,21.30
2022-11-16T07:05:37.781Z,21.30
2022-11-16T07:08:12.410Z,21.30
2022-11-16T07:10:44.359Z,21.30
2022-11-16T07:13:18.811Z,21.30
2022-11-16T07:15:52.184Z,21.30
2022-11-16T07:18:26.324Z,21.30
2022-11-16T07:21:01.175Z,21.30
2022-11-16T07:23:33.130Z,21.30
2022-11-16T07:26:20.127Z,21.30
2022-11-16T07:29:02.211Z,21.40
2022-11-16T07:31:34.316Z,21.40
2022-11-16T07:34:46.477Z,21.30
2022-11-16T07:37:19.778Z,21.40
2022-11-16T07:39:53.500Z,21.40
2022-11-16T07:42:29.408Z,21.40
2022-11-16T07:45:09.669Z,21.40
2022-11-16T07:47:45.538Z,21.40
2022-11-16T07:50:25.452Z,21.40
2022-11-16T07:52:58.153Z,21.40
2022-11-16T07:58:05.620Z,21.40
2022-11-16T08:00:36.056Z,21.40
2022-11-16T08:03:18.191Z,21.40
2022-11-16T08:06:01.114Z,21.40
2022-11-16T08:08:31.956Z,21.40
2022-11-16T08:11:03.676Z,21.40
2022-11-16T08:13:37.271Z,21.50
2022-11-16T08:16:14.858Z,21.50
2022-11-16T08:18:47.992Z,21.40
2022-11-16T08:21:19.646Z,21.50
2022-11-16T08:23:53.826Z,21.50
2022-11-16T08:26:27.252Z,21.40
2022-11-16T08:29:03.249Z,21.50
2022-11-16T08:31:37.314Z,21.50
2022-11-16T08:34:14.844Z,21.50
2022-11-16T08:36:49.572Z,21.50
2022-11-16T08:39:22.163Z,21.50
2022-11-16T08:41:53.583Z,21.50
2022-11-16T08:44:24.527Z,21.50
2022-11-16T08:46:57.982Z,21.50
2022-11-16T08:49:36.150Z,21.50
2022-11-16T08:52:07.096Z,21.50
2022-11-16T08:54:38.140Z,21.50
2022-11-16T08:57:08.602Z,21.50
2022-11-16T08:59:40.608Z,21.50
2022-11-16T09:02:15.319Z,21.50
2022-11-16T09:04:46.260Z,21.50
2022-11-16T09:07:16.846Z,21.50
2022-11-16T09:09:47.167Z,21.50
2022-11-16T09:12:17.382Z,21.50
2022-11-16T09:14:48.081Z,21.50
2022-11-16T09:17:23.128Z,21.50
2022-11-16T09:19:53.592Z,21.50
2022-11-16T09:22:23.541Z,21.50
2022-11-16T09:24:55.133Z,21.50
2022-11-16T09:27:25.629Z,21.50
2022-11-16T09:29:56.016Z,21.50
2022-11-16T09:32:26.228Z,21.50
2022-11-16T09:34:57.894Z,21.50
2022-11-16T09:37:28.153Z,21.50
2022-11-16T09:39:59.437Z,21.50
2022-11-16T09:42:57.300Z,21.50
2022-11-16T09:45:49.087Z,21.50
2022-11-16T09:48:19.488Z,21.50
2022-11-16T09:50:52.571Z,21.50
2022-11-16T09:53:34.983Z,21.50
2022-11-16T09:56:17.851Z,21.50
2022-11-16T09:59:17.774Z,21.50
2022-11-16T10:01:54.325Z,21.50
2022-11-16T10:04:58.525Z,21.50
2022-11-16T10:07:34.860Z,21.50
2022-11-16T10:10:05.286Z,21.50
2022-11-16T10:12:44.854Z,21.50
2022-11-16T10:15:39.855Z,21.50
2022-11-16T10:18:18.315Z,21.50
2022-11-16T10:20:56.466Z,21.50
2022-11-16T10:23:54.506Z,21.50
2022-11-16T10:26:52.613Z,21.50
2022-11-16T10:29:44.232Z,21.50
2022-11-16T10:32:14.885Z,21.50
2022-11-16T10:34:55.216Z,21.50
2022-11-16T10:37:28.267Z,21.50
2022-11-16T10:39:58.468Z,21.50
2022-11-16T10:42:37.721Z,21.50
2022-11-16T10:45:14.057Z,21.50
2022-11-16T10:48:14.276Z,21.50
2022-11-16T10:50:51.395Z,21.50
2022-11-16T10:53:36.145Z,21.50
2022-11-16T10:56:20.138Z,21.50
2022-11-16T10:59:07.783Z,21.50
2022-11-16T11:04:33.659Z,21.50
2022-11-16T11:07:33.997Z,21.60
2022-11-16T11:10:15.912Z,21.60
2022-11-16T11:12:48.013Z,21.50
2022-11-16T11:15:27.324Z,21.60
2022-11-16T11:18:19.657Z,21.60
2022-11-16T11:20:56.240Z,21.60
2022-11-16T11:23:27.085Z,21.60
2022-11-16T11:25:59.486Z,21.50
2022-11-16T11:28:36.429Z,21.60
2022-11-16T11:32:11.219Z,21.60
2022-11-16T11:34:56.399Z,21.60
2022-11-16T11:37:45.072Z,21.60
2022-11-16T11:40:23.562Z,21.60
2022-11-16T11:43:00.240Z,21.60
2022-11-16T11:45:58.263Z,21.60
2022-11-16T11:49:06.812Z,21.50
2022-11-16T11:51:47.578Z,21.50
2022-11-16T11:54:34.287Z,21.50
2022-11-16T11:57:09.826Z,21.50
2022-11-16T11:59:52.176Z,21.50
2022-11-16T12:02:32.410Z,21.50
2022-11-16T12:05:18.657Z,21.50
2022-11-16T12:08:19.119Z,21.50
2022-11-16T12:10:56.351Z,21.50
2022-11-16T12:13:31.294Z,21.50
2022-11-16T12:16:34.418Z,21.50
2022-11-16T12:19:33.105Z,21.50
2022-11-16T12:22:15.665Z,21.50
2022-11-16T12:25:27.129Z,21.50
2022-11-16T12:28:21.704Z,21.50
2022-11-16T12:31:30.239Z,21.50
2022-11-16T12:34:03.301Z,21.50
2022-11-16T12:36:54.422Z,21.50
2022-11-16T12:39:48.663Z,21.50
2022-11-16T12:42:27.888Z,21.50
2022-11-16T12:45:30.515Z,21.50
2022-11-16T12:48:37.694Z,21.50
2022-11-16T12:51:18.435Z,21.50
2022-11-16T12:54:07.866Z,21.50
2022-11-16T12:57:43.842Z,21.50
2022-11-16T13:00:21.092Z,21.50
2022-11-16T13:03:10.302Z,21.50
2022-11-16T13:05:58.659Z,21.50
2022-11-16T13:08:39.301Z,21.50
2022-11-16T13:11:33.649Z,21.50
2022-11-16T13:14:08.881Z,21.50
2022-11-16T13:16:39.330Z,21.50
2022-11-16T13:19:15.728Z,21.50
2022-11-16T13:22:15.709Z,21.50
2022-11-16T13:25:06.068Z,21.50
2022-11-16T13:28:29.317Z,21.40
2022-11-16T13:31:12.909Z,21.50
2022-11-16T13:33:56.971Z,21.50
2022-11-16T13:36:43.100Z,21.50
2022-11-16T13:39:21.839Z,21.50
2022-11-16T13:42:12.869Z,21.50
2022-11-16T13:44:51.559Z,21.50
2022-11-16T13:47:27.478Z,21.40
2022-11-16T13:50:05.458Z,21.40
2022-11-16T13:53:57.691Z,21.50
2022-11-16T13:55:52.210Z,21.40
2022-11-16T13:58:23.085Z,21.40
2022-11-16T14:01:16.807Z,21.50
2022-11-16T14:03:53.659Z,21.50
2022-11-16T14:06:30.113Z,21.40
2022-11-16T14:09:03.488Z,21.40
2022-11-16T14:11:39.067Z,21.40
2022-11-16T14:14:16.936Z,21.40
2022-11-16T14:16:49.085Z,21.50
2022-11-16T14:19:50.162Z,21.40
2022-11-16T14:22:35.381Z,21.50
2022-11-16T14:25:37.419Z,21.40
2022-11-16T14:28:34.752Z,21.40
2022-11-16T14:31:27.503Z,21.40
2022-11-16T14:34:00.314Z,21.40
2022-11-16T14:36:54.801Z,21.40
2022-11-16T14:39:42.417Z,21.40
2022-11-16T14:42:54.429Z,21.40
2022-11-16T14:45:28.732Z,21.40
2022-11-16T14:48:18.384Z,21.40
2022-11-16T14:51:08.366Z,21.40
2022-11-16T14:53:52.375Z,21.40
2022-11-16T14:56:31.609Z,21.40
2022-11-16T14:59:03.986Z,21.30
2022-11-16T15:01:48.294Z,21.30
2022-11-16T15:04:27.769Z,21.30
2022-11-16T15:07:04.780Z,21.30
2022-11-16T15:09:52.114Z,21.40
2022-11-16T15:12:43.588Z,21.30
2022-11-16T15:15:16.101Z,21.30
2022-11-16T15:18:02.313Z,21.30
2022-11-16T15:20:35.825Z,21.30
2022-11-16T15:23:06.974Z,21.40
2022-11-16T15:25:53.667Z,21.40
2022-11-16T15:28:35.785Z,21.30
2022-11-16T15:31:07.280Z,21.30
2022-11-16T15:33:44.449Z,21.30
2022-11-16T15:36:39.792Z,21.30
2022-11-16T15:39:24.153Z,21.30
2022-11-16T15:42:00.472Z,21.30
2022-11-16T15:44:37.068Z,21.30
2022-11-16T15:47:13.199Z,21.30
2022-11-16T15:49:49.308Z,21.30
2022-11-16T15:52:51.572Z,21.30
2022-11-16T15:55:41.320Z,21.30
2022-11-16T15:58:33.934Z,21.20
2022-11-16T16:01:13.338Z,21.30
2022-11-16T16:04:08.944Z,21.30
2022-11-16T16:06:57.457Z,21.30
2022-11-16T16:09:35.768Z,21.30
2022-11-16T16:12:25.128Z,21.30
2022-11-16T16:15:01.478Z,21.30
2022-11-16T16:17:37.901Z,21.20
2022-11-16T16:20:21.501Z,21.20
2022-11-16T16:22:58.419Z,21.20
2022-11-16T16:25:35.099Z,21.20
2022-11-16T16:28:11.502Z,21.20
2022-11-16T16:30:47.402Z,21.20
2022-11-16T16:33:24.634Z,21.20
2022-11-16T16:35:55.971Z,21.20
2022-11-16T16:38:29.201Z,21.20
2022-11-16T16:41:03.788Z,21.20
2022-11-16T16:43:37.290Z,21.20
2022-11-16T16:46:20.298Z,21.20
2022-11-16T16:48:59.530Z,21.20
2022-11-16T16:51:35.661Z,21.20
2022-11-16T16:54:08.909Z,21.20
2022-11-16T16:56:39.944Z,21.20
2022-11-16T16:59:10.758Z,21.20
2022-11-16T17:01:47.254Z,21.20
2022-11-16T17:04:20.813Z,21.20
2022-11-16T17:06:58.892Z,21.20
2022-11-16T17:09:32.532Z,21.20
2022-11-16T17:12:05.525Z,21.10
2022-11-16T17:14:41.656Z,21.20
2022-11-16T17:17:14.655Z,21.20
2022-11-16T17:19:48.114Z,21.10
2022-11-16T17:22:20.083Z,21.20
2022-11-16T17:24:54.723Z,21.20
2022-11-16T17:27:39.668Z,21.20
2022-11-16T17:30:19.633Z,21.20
2022-11-16T17:32:49.800Z,21.20
2022-11-16T17:35:25.833Z,21.10
2022-11-16T17:38:11.948Z,21.10
2022-11-16T17:40:51.180Z,21.10
2022-11-16T17:43:26.569Z,21.10
2022-11-16T17:46:07.312Z,21.10
2022-11-16T17:48:40.928Z,21.10
2022-11-16T17:51:18.413Z,21.10
2022-11-16T17:53:54.286Z,21.10
2022-11-16T17:56:27.319Z,21.10
2022-11-16T17:58:59.519Z,21.10
2022-11-16T18:01:35.963Z,21.10
2022-11-16T18:04:08.225Z,21.10
2022-11-16T18:06:39.728Z,21.10
2022-11-16T18:09:13.367Z,21.10
2022-11-16T18:11:49.495Z,21.10
2022-11-16T18:14:34.613Z,21.10
2022-11-16T18:17:07.782Z,21.10
2022-11-16T18:19:40.855Z,21.10
2022-11-16T18:22:22.854Z,21.10
2022-11-16T18:25:00.599Z,21.10
2022-11-16T18:27:31.596Z,21.10
2022-11-16T18:30:07.479Z,21.10
2022-11-16T18:32:39.210Z,21.10
2022-11-16T18:35:11.892Z,21.10
2022-11-16T18:37:44.909Z,21.10
2022-11-16T18:40:21.630Z,21.00
2022-11-16T18:42:57.563Z,21.00
2022-11-16T18:45:34.229Z,21.10
2022-11-16T18:48:10.903Z,21.10
2022-11-16T18:50:55.984Z,21.10
2022-11-16T18:53:27.224Z,21.10
2022-11-16T18:55:59.974Z,21.10
2022-11-16T18:58:49.839Z,21.00
2022-11-16T19:01:31.984Z,21.10
2022-11-16T19:04:03.216Z,21.00
2022-11-16T19:06:33.694Z,21.00
2022-11-16T19:09:08.213Z,21.00
2022-11-16T19:11:41.392Z,21.00
2022-11-16T19:14:17.873Z,21.00
2022-11-16T19:16:57.132Z,21.10
2022-11-16T19:19:32.242Z,21.00
2022-11-16T19:22:05.193Z,21.00
2022-11-16T19:24:41.208Z,21.00
2022-11-16T19:27:17.708Z,21.00
2022-11-16T19:29:51.384Z,21.00
2022-11-16T19:32:27.373Z,21.00
2022-11-16T19:35:00.650Z,21.00
2022-11-16T19:37:31.182Z,21.00
2022-11-16T19:40:04.413Z,21.00
2022-11-16T19:42:37.271Z,21.00
2022-11-16T19:45:19.998Z,21.00
2022-11-16T19:47:58.695Z,21.00
2022-11-16T19:50:34.609Z,21.00
2022-11-16T19:53:10.507Z,21.00
2022-11-16T19:55:52.305Z,21.00
2022-11-16T19:58:36.147Z,21.00
2022-11-16T20:01:19.748Z,21.00
2022-11-16T20:03:51.237Z,21.00
2022-11-16T20:06:31.792Z,21.00
2022-11-16T20:09:05.077Z,21.00
2022-11-16T20:11:41.173Z,21.00
2022-11-16T20:14:15.961Z,21.00
2022-11-16T20:17:00.554Z,21.00
2022-11-16T20:19:39.769Z,21.00
2022-11-16T20:22:13.418Z,21.00
2022-11-16T20:24:49.518Z,21.00
2022-11-16T20:27:30.495Z,21.00
2022-11-16T20:30:09.550Z,21.00
2022-11-16T20:32:53.549Z,21.00
2022-11-16T20:35:29.538Z,21.00
2022-11-16T20:38:02.577Z,21.00
2022-11-16T20:40:38.519Z,21.00
2022-11-16T20:43:11.802Z,21.00
2022-11-16T20:45:45.093Z,21.00
2022-11-16T20:48:15.249Z,21.00
2022-11-16T20:50:59.559Z,20.90
2022-11-16T20:53:31.677Z,20.90
2022-11-16T20:56:05.730Z,20.90
2022-11-16T20:58:39.280Z,21.00
2022-11-16T21:01:12.080Z,21.00
2022-11-16T21:03:43.710Z,20.90
2022-11-16T21:06:20.425Z,20.90
2022-11-16T21:08:53.585Z,20.90
2022-11-16T21:11:27.764Z,20.90
2022-11-16T21:14:16.456Z,21.00
2022-11-16T21:16:49.403Z,20.90
2022-11-16T21:19:19.797Z,20.90
2022-11-16T21:21:56.665Z,20.90
2022-11-16T21:24:28.699Z,20.90
2022-11-16T21:26:58.814Z,20.90
2022-11-16T21:29:35.853Z,20.90
2022-11-16T21:32:12.069Z,20.90
2022-11-16T21:34:44.965Z,20.90
2022-11-16T21:37:21.581Z,20.90
2022-11-16T21:39:53.343Z,20.90
2022-11-16T21:42:23.402Z,20.90
2022-11-16T21:44:59.264Z,20.90
2022-11-16T21:47:33.137Z,20.90
2022-11-16T21:50:30.725Z,20.90
2022-11-16T21:53:05.010Z,20.80
2022-11-16T21:55:38.594Z,20.90
2022-11-16T21:58:14.919Z,20.90
2022-11-16T22:00:51.129Z,20.90
2022-11-16T22:03:27.256Z,20.90
2022-11-16T22:06:16.668Z,20.90
2022-11-16T22:08:47.447Z,20.90
2022-11-16T22:11:23.758Z,20.90
2022-11-16T22:14:00.045Z,20.90
2022-11-16T22:16:33.087Z,20.90
2022-11-16T22:19:06.685Z,20.90
2022-11-16T22:21:42.891Z,20.80
2022-11-16T22:24:19.084Z,20.90
2022-11-16T22:26:55.485Z,20.80
2022-11-16T22:29:31.921Z,20.80
2022-11-16T22:32:05.484Z,20.80
2022-11-16T22:34:41.650Z,20.90
2022-11-16T22:37:15.468Z,20.80
2022-11-16T22:39:51.698Z,20.80
2022-11-16T22:42:27.844Z,20.80
2022-11-16T22:44:58.053Z,20.80
2022-11-16T22:47:28.165Z,20.80
2022-11-16T22:49:58.127Z,20.80
2022-11-16T22:52:30.650Z,20.80
2022-11-16T22:55:06.898Z,20.80
2022-11-16T22:57:40.537Z,20.80
2022-11-16T23:00:11.471Z,20.80
2022-11-16T23:02:43.275Z,20.80
2022-11-16T23:05:17.428Z,20.80
2022-11-16T23:07:53.574Z,20.80
2022-11-16T23:10:35.646Z,20.80
2022-11-16T23:13:28.524Z,20.80
2022-11-16T23:16:12.010Z,20.80
2022-11-16T23:18:44.119Z,20.80
2022-11-16T23:21:32.337Z,20.80
2022-11-16T23:24:23.013Z,20.70
2022-11-16T23:27:11.541Z,20.80
2022-11-16T23:29:52.019Z,20.80
2022-11-16T23:32:37.009Z,20.80
2022-11-16T23:35:13.520Z,20.70
2022-11-16T23:37:56.048Z,20.70
2022-11-16T23:40:31.390Z,20.80
2022-11-16T23:43:20.042Z,20.80
2022-11-16T23:45:59.408Z,20.70
2022-11-16T23:48:35.856Z,20.70
2022-11-16T23:51:09.005Z,20.70
2022-11-16T23:53:42.614Z,20.70
2022-11-16T23:56:18.961Z,20.70
2022-11-16T23:58:52.385Z,20.70
